Terminal Aerodrome Forecast
Issued by NWS

Home | Current Version | Previous Version | Text Only | Print | Product List | Glossary On
Versions: 1 2 3 4 5 6 7 8 9 10 11 12 13
000
FTUS45 KVEF 030500
TAFHND
TAF
KHND 030520Z 0306/0406 19010KT P6SM SKC
     FM031900 20013G20KT P6SM SKC
     FM040200 20010KT P6SM SKC=

USA.gov is the U.S. government's official web portal to all federal, state and local government web resources and services.